sensor_id;sensor_type;location;lat;lon;timestamp;P1;durP1;ratioP1;P2;durP2;ratioP2
8938;SDS011;4504;48.810;9.172;2022-08-11T00:01:07;101.30;;;2.00;;
8938;SDS011;4504;48.810;9.172;2022-08-11T00:03:41;102.03;;;1.83;;
8938;SDS011;4504;48.810;9.172;2022-08-11T00:06:11;103.27;;;2.00;;
8938;SDS011;4504;48.810;9.172;2022-08-11T00:08:40;102.17;;;2.10;;
8938;SDS011;4504;48.810;9.172;2022-08-11T00:11:09;100.90;;;2.17;;
8938;SDS011;4504;48.810;9.172;2022-08-11T00:13:38;100.87;;;2.10;;
8938;SDS011;4504;48.810;9.172;2022-08-11T00:16:10;102.77;;;2.10;;
8938;SDS011;4504;48.810;9.172;2022-08-11T00:18:43;102.07;;;2.40;;
8938;SDS011;4504;48.810;9.172;2022-08-11T00:21:12;102.10;;;1.90;;
8938;SDS011;4504;48.810;9.172;2022-08-11T00:23:41;102.97;;;2.37;;
8938;SDS011;4504;48.810;9.172;2022-08-11T00:26:10;103.80;;;2.50;;
8938;SDS011;4504;48.810;9.172;2022-08-11T00:28:38;104.73;;;2.37;;
8938;SDS011;4504;48.810;9.172;2022-08-11T00:31:06;103.50;;;2.10;;
8938;SDS011;4504;48.810;9.172;2022-08-11T00:33:36;101.40;;;2.03;;
8938;SDS011;4504;48.810;9.172;2022-08-11T00:36:07;103.10;;;2.40;;
8938;SDS011;4504;48.810;9.172;2022-08-11T00:38:37;102.00;;;1.97;;
8938;SDS011;4504;48.810;9.172;2022-08-11T00:41:10;103.40;;;2.20;;
8938;SDS011;4504;48.810;9.172;2022-08-11T00:43:50;103.37;;;2.43;;
8938;SDS011;4504;48.810;9.172;2022-08-11T00:46:41;104.10;;;2.13;;
8938;SDS011;4504;48.810;9.172;2022-08-11T00:49:23;103.17;;;2.20;;
8938;SDS011;4504;48.810;9.172;2022-08-11T00:52:09;102.70;;;2.53;;
8938;SDS011;4504;48.810;9.172;2022-08-11T01:01:19;103.40;;;2.27;;
8938;SDS011;4504;48.810;9.172;2022-08-11T01:04:15;103.97;;;2.10;;
8938;SDS011;4504;48.810;9.172;2022-08-11T01:09:52;104.57;;;2.80;;
8938;SDS011;4504;48.810;9.172;2022-08-11T01:12:42;103.60;;;2.17;;
8938;SDS011;4504;48.810;9.172;2022-08-11T01:25:17;104.10;;;2.40;;
8938;SDS011;4504;48.810;9.172;2022-08-11T01:41:09;104.10;;;2.53;;
8938;SDS011;4504;48.810;9.172;2022-08-11T01:44:00;104.60;;;2.83;;
8938;SDS011;4504;48.810;9.172;2022-08-11T01:47:04;105.60;;;2.77;;
8938;SDS011;4504;48.810;9.172;2022-08-11T01:50:02;104.33;;;2.43;;
8938;SDS011;4504;48.810;9.172;2022-08-11T01:52:41;104.20;;;2.90;;
8938;SDS011;4504;48.810;9.172;2022-08-11T01:55:20;104.20;;;2.40;;
8938;SDS011;4504;48.810;9.172;2022-08-11T01:57:52;104.27;;;2.43;;
8938;SDS011;4504;48.810;9.172;2022-08-11T02:00:32;103.07;;;2.30;;
8938;SDS011;4504;48.810;9.172;2022-08-11T02:03:12;103.70;;;2.80;;
8938;SDS011;4504;48.810;9.172;2022-08-11T02:05:56;103.87;;;2.30;;
8938;SDS011;4504;48.810;9.172;2022-08-11T02:08:51;103.20;;;2.23;;
8938;SDS011;4504;48.810;9.172;2022-08-11T02:11:27;104.67;;;2.43;;
8938;SDS011;4504;48.810;9.172;2022-08-11T02:14:02;104.43;;;2.73;;
8938;SDS011;4504;48.810;9.172;2022-08-11T02:16:50;106.53;;;2.50;;
8938;SDS011;4504;48.810;9.172;2022-08-11T02:19:26;105.10;;;2.83;;
8938;SDS011;4504;48.810;9.172;2022-08-11T02:22:22;104.97;;;2.60;;
8938;SDS011;4504;48.810;9.172;2022-08-11T02:25:19;104.80;;;2.60;;
8938;SDS011;4504;48.810;9.172;2022-08-11T02:27:54;106.33;;;3.23;;
8938;SDS011;4504;48.810;9.172;2022-08-11T02:30:30;104.50;;;2.60;;
8938;SDS011;4504;48.810;9.172;2022-08-11T02:33:04;105.27;;;2.80;;
8938;SDS011;4504;48.810;9.172;2022-08-11T02:35:54;105.17;;;2.57;;
8938;SDS011;4504;48.810;9.172;2022-08-11T02:38:28;105.03;;;2.63;;
8938;SDS011;4504;48.810;9.172;2022-08-11T02:41:02;105.57;;;3.00;;
8938;SDS011;4504;48.810;9.172;2022-08-11T02:44:04;105.30;;;2.70;;
8938;SDS011;4504;48.810;9.172;2022-08-11T02:46:40;104.10;;;2.30;;
8938;SDS011;4504;48.810;9.172;2022-08-11T02:49:17;108.97;;;2.47;;
8938;SDS011;4504;48.810;9.172;2022-08-11T02:52:19;107.77;;;2.33;;
8938;SDS011;4504;48.810;9.172;2022-08-11T02:54:58;105.57;;;2.40;;
8938;SDS011;4504;48.810;9.172;2022-08-11T02:57:39;105.87;;;3.17;;
8938;SDS011;4504;48.810;9.172;2022-08-11T03:00:09;107.27;;;2.50;;
8938;SDS011;4504;48.810;9.172;2022-08-11T03:02:46;104.83;;;2.27;;
8938;SDS011;4504;48.810;9.172;2022-08-11T03:05:25;105.43;;;2.70;;
8938;SDS011;4504;48.810;9.172;2022-08-11T03:08:11;105.37;;;2.80;;
8938;SDS011;4504;48.810;9.172;2022-08-11T03:10:47;106.40;;;3.03;;
8938;SDS011;4504;48.810;9.172;2022-08-11T03:13:34;110.17;;;3.07;;
8938;SDS011;4504;48.810;9.172;2022-08-11T03:16:28;106.00;;;2.73;;
8938;SDS011;4504;48.810;9.172;2022-08-11T03:19:15;105.57;;;2.60;;
8938;SDS011;4504;48.810;9.172;2022-08-11T03:21:51;106.27;;;2.90;;
8938;SDS011;4504;48.810;9.172;2022-08-11T03:24:27;105.40;;;2.60;;
8938;SDS011;4504;48.810;9.172;2022-08-11T03:27:02;105.40;;;2.40;;
8938;SDS011;4504;48.810;9.172;2022-08-11T03:29:38;106.07;;;2.70;;
8938;SDS011;4504;48.810;9.172;2022-08-11T03:32:18;106.37;;;2.87;;
8938;SDS011;4504;48.810;9.172;2022-08-11T03:34:53;106.70;;;2.90;;
8938;SDS011;4504;48.810;9.172;2022-08-11T03:37:26;107.63;;;2.93;;
8938;SDS011;4504;48.810;9.172;2022-08-11T03:40:40;104.17;;;2.57;;
8938;SDS011;4504;48.810;9.172;2022-08-11T03:43:51;105.30;;;2.90;;
8938;SDS011;4504;48.810;9.172;2022-08-11T03:46:28;105.00;;;2.70;;
8938;SDS011;4504;48.810;9.172;2022-08-11T03:49:13;106.07;;;2.67;;
8938;SDS011;4504;48.810;9.172;2022-08-11T03:51:51;106.80;;;2.80;;
8938;SDS011;4504;48.810;9.172;2022-08-11T03:54:25;105.90;;;2.70;;
8938;SDS011;4504;48.810;9.172;2022-08-11T03:57:05;105.80;;;2.90;;
8938;SDS011;4504;48.810;9.172;2022-08-11T04:00:04;104.83;;;2.50;;
8938;SDS011;4504;48.810;9.172;2022-08-11T04:12:12;105.70;;;2.70;;
8938;SDS011;4504;48.810;9.172;2022-08-11T04:15:03;107.20;;;2.83;;
8938;SDS011;4504;48.810;9.172;2022-08-11T04:18:04;106.10;;;2.90;;
8938;SDS011;4504;48.810;9.172;2022-08-11T04:21:09;106.77;;;2.67;;
8938;SDS011;4504;48.810;9.172;2022-08-11T04:23:55;105.30;;;2.80;;
8938;SDS011;4504;48.810;9.172;2022-08-11T04:26:55;105.30;;;2.57;;
8938;SDS011;4504;48.810;9.172;2022-08-11T04:29:45;105.67;;;2.83;;
8938;SDS011;4504;48.810;9.172;2022-08-11T04:32:35;107.10;;;3.70;;
8938;SDS011;4504;48.810;9.172;2022-08-11T04:44:48;106.17;;;2.70;;
8938;SDS011;4504;48.810;9.172;2022-08-11T04:47:50;105.60;;;2.90;;
8938;SDS011;4504;48.810;9.172;2022-08-11T04:50:52;105.87;;;2.80;;
8938;SDS011;4504;48.810;9.172;2022-08-11T04:53:52;106.97;;;2.90;;
8938;SDS011;4504;48.810;9.172;2022-08-11T04:56:43;113.40;;;3.10;;
8938;SDS011;4504;48.810;9.172;2022-08-11T04:59:39;106.00;;;2.80;;
8938;SDS011;4504;48.810;9.172;2022-08-11T05:05:46;106.17;;;2.87;;
8938;SDS011;4504;48.810;9.172;2022-08-11T05:08:48;106.83;;;3.00;;
8938;SDS011;4504;48.810;9.172;2022-08-11T05:14:51;106.00;;;2.60;;
8938;SDS011;4504;48.810;9.172;2022-08-11T05:17:38;107.27;;;3.03;;
8938;SDS011;4504;48.810;9.172;2022-08-11T05:20:41;106.33;;;3.10;;
8938;SDS011;4504;48.810;9.172;2022-08-11T05:23:30;109.00;;;3.60;;
8938;SDS011;4504;48.810;9.172;2022-08-11T05:26:18;106.17;;;2.70;;
8938;SDS011;4504;48.810;9.172;2022-08-11T05:29:22;115.43;;;2.80;;
8938;SDS011;4504;48.810;9.172;2022-08-11T05:32:11;106.87;;;3.00;;
8938;SDS011;4504;48.810;9.172;2022-08-11T05:35:00;106.17;;;2.80;;
8938;SDS011;4504;48.810;9.172;2022-08-11T05:37:33;105.90;;;2.83;;
8938;SDS011;4504;48.810;9.172;2022-08-11T05:40:07;106.37;;;2.80;;
8938;SDS011;4504;48.810;9.172;2022-08-11T05:42:55;106.13;;;2.83;;
8938;SDS011;4504;48.810;9.172;2022-08-11T05:45:42;107.07;;;2.70;;
8938;SDS011;4504;48.810;9.172;2022-08-11T05:48:28;105.37;;;2.70;;
8938;SDS011;4504;48.810;9.172;2022-08-11T05:51:16;105.60;;;2.60;;
8938;SDS011;4504;48.810;9.172;2022-08-11T05:54:03;105.40;;;2.67;;
8938;SDS011;4504;48.810;9.172;2022-08-11T05:56:53;105.57;;;2.97;;
8938;SDS011;4504;48.810;9.172;2022-08-11T05:59:23;105.47;;;2.70;;
8938;SDS011;4504;48.810;9.172;2022-08-11T06:01:52;107.00;;;3.07;;
8938;SDS011;4504;48.810;9.172;2022-08-11T06:04:25;105.80;;;2.80;;
8938;SDS011;4504;48.810;9.172;2022-08-11T06:06:54;106.57;;;3.00;;
8938;SDS011;4504;48.810;9.172;2022-08-11T06:09:24;106.30;;;3.40;;
8938;SDS011;4504;48.810;9.172;2022-08-11T06:11:53;106.67;;;3.13;;
8938;SDS011;4504;48.810;9.172;2022-08-11T06:14:26;106.40;;;3.00;;
8938;SDS011;4504;48.810;9.172;2022-08-11T06:16:55;107.07;;;3.13;;
8938;SDS011;4504;48.810;9.172;2022-08-11T06:19:30;105.77;;;2.70;;
8938;SDS011;4504;48.810;9.172;2022-08-11T06:22:00;105.30;;;2.90;;
8938;SDS011;4504;48.810;9.172;2022-08-11T06:24:29;106.00;;;2.93;;
8938;SDS011;4504;48.810;9.172;2022-08-11T06:26:57;104.87;;;3.13;;
8938;SDS011;4504;48.810;9.172;2022-08-11T06:29:27;109.10;;;3.50;;
8938;SDS011;4504;48.810;9.172;2022-08-11T06:31:56;104.70;;;2.90;;
8938;SDS011;4504;48.810;9.172;2022-08-11T06:34:27;105.17;;;3.00;;
8938;SDS011;4504;48.810;9.172;2022-08-11T06:37:06;106.33;;;2.90;;
8938;SDS011;4504;48.810;9.172;2022-08-11T06:39:43;105.00;;;2.83;;
8938;SDS011;4504;48.810;9.172;2022-08-11T06:42:22;105.03;;;2.77;;
8938;SDS011;4504;48.810;9.172;2022-08-11T06:45:02;105.57;;;2.83;;
8938;SDS011;4504;48.810;9.172;2022-08-11T06:47:34;118.90;;;2.70;;
8938;SDS011;4504;48.810;9.172;2022-08-11T06:50:07;104.17;;;2.90;;
8938;SDS011;4504;48.810;9.172;2022-08-11T06:52:48;105.23;;;2.70;;
8938;SDS011;4504;48.810;9.172;2022-08-11T06:55:20;104.30;;;2.87;;
8938;SDS011;4504;48.810;9.172;2022-08-11T06:58:11;105.33;;;2.67;;
8938;SDS011;4504;48.810;9.172;2022-08-11T07:01:02;105.60;;;2.90;;
8938;SDS011;4504;48.810;9.172;2022-08-11T07:03:36;104.97;;;3.73;;
8938;SDS011;4504;48.810;9.172;2022-08-11T07:06:13;104.27;;;2.57;;
8938;SDS011;4504;48.810;9.172;2022-08-11T07:08:55;104.87;;;2.67;;
8938;SDS011;4504;48.810;9.172;2022-08-11T07:11:59;102.97;;;2.70;;
8938;SDS011;4504;48.810;9.172;2022-08-11T07:14:51;104.10;;;2.80;;
8938;SDS011;4504;48.810;9.172;2022-08-11T07:17:40;104.63;;;2.93;;
8938;SDS011;4504;48.810;9.172;2022-08-11T07:20:13;105.17;;;2.83;;
8938;SDS011;4504;48.810;9.172;2022-08-11T07:23:00;103.90;;;2.90;;
8938;SDS011;4504;48.810;9.172;2022-08-11T07:25:48;104.57;;;2.90;;
8938;SDS011;4504;48.810;9.172;2022-08-11T07:28:35;104.10;;;2.53;;
8938;SDS011;4504;48.810;9.172;2022-08-11T07:31:30;102.57;;;2.50;;
8938;SDS011;4504;48.810;9.172;2022-08-11T07:34:09;105.70;;;2.73;;
8938;SDS011;4504;48.810;9.172;2022-08-11T07:36:45;104.70;;;2.50;;
8938;SDS011;4504;48.810;9.172;2022-08-11T07:39:15;102.83;;;2.33;;
8938;SDS011;4504;48.810;9.172;2022-08-11T07:41:46;103.13;;;2.73;;
8938;SDS011;4504;48.810;9.172;2022-08-11T07:44:14;103.47;;;2.30;;
8938;SDS011;4504;48.810;9.172;2022-08-11T07:46:43;103.57;;;3.10;;
8938;SDS011;4504;48.810;9.172;2022-08-11T07:49:32;104.23;;;2.83;;
8938;SDS011;4504;48.810;9.172;2022-08-11T07:52:19;103.37;;;3.30;;
8938;SDS011;4504;48.810;9.172;2022-08-11T07:54:54;104.17;;;3.03;;
8938;SDS011;4504;48.810;9.172;2022-08-11T07:57:24;102.50;;;2.60;;
8938;SDS011;4504;48.810;9.172;2022-08-11T08:00:10;103.70;;;2.80;;
8938;SDS011;4504;48.810;9.172;2022-08-11T08:02:55;102.63;;;2.50;;
8938;SDS011;4504;48.810;9.172;2022-08-11T08:05:44;102.87;;;2.20;;
8938;SDS011;4504;48.810;9.172;2022-08-11T08:08:29;103.17;;;2.47;;
8938;SDS011;4504;48.810;9.172;2022-08-11T08:11:14;103.03;;;2.50;;
8938;SDS011;4504;48.810;9.172;2022-08-11T08:14:02;102.00;;;2.23;;
8938;SDS011;4504;48.810;9.172;2022-08-11T08:16:47;104.10;;;2.67;;
8938;SDS011;4504;48.810;9.172;2022-08-11T08:19:32;105.60;;;2.60;;
8938;SDS011;4504;48.810;9.172;2022-08-11T08:22:01;101.47;;;2.33;;
8938;SDS011;4504;48.810;9.172;2022-08-11T08:24:29;102.97;;;2.60;;
8938;SDS011;4504;48.810;9.172;2022-08-11T08:26:57;102.47;;;2.70;;
8938;SDS011;4504;48.810;9.172;2022-08-11T08:29:25;103.37;;;2.67;;
8938;SDS011;4504;48.810;9.172;2022-08-11T08:32:12;102.83;;;2.40;;
8938;SDS011;4504;48.810;9.172;2022-08-11T08:34:41;101.90;;;2.27;;
8938;SDS011;4504;48.810;9.172;2022-08-11T08:37:10;103.10;;;3.17;;
8938;SDS011;4504;48.810;9.172;2022-08-11T08:39:38;102.57;;;2.53;;
8938;SDS011;4504;48.810;9.172;2022-08-11T08:42:06;101.97;;;2.30;;
8938;SDS011;4504;48.810;9.172;2022-08-11T08:44:38;105.77;;;2.87;;
8938;SDS011;4504;48.810;9.172;2022-08-11T08:47:09;101.97;;;2.30;;
8938;SDS011;4504;48.810;9.172;2022-08-11T08:49:43;104.87;;;2.57;;
8938;SDS011;4504;48.810;9.172;2022-08-11T08:52:15;102.50;;;2.33;;
8938;SDS011;4504;48.810;9.172;2022-08-11T08:54:46;102.23;;;2.70;;
8938;SDS011;4504;48.810;9.172;2022-08-11T08:57:18;100.77;;;2.50;;
8938;SDS011;4504;48.810;9.172;2022-08-11T08:59:48;101.87;;;2.40;;
8938;SDS011;4504;48.810;9.172;2022-08-11T09:02:16;101.07;;;2.70;;
8938;SDS011;4504;48.810;9.172;2022-08-11T09:04:46;105.07;;;2.53;;
8938;SDS011;4504;48.810;9.172;2022-08-11T09:07:15;101.40;;;2.03;;
8938;SDS011;4504;48.810;9.172;2022-08-11T09:09:44;103.33;;;2.07;;
8938;SDS011;4504;48.810;9.172;2022-08-11T09:12:14;101.67;;;2.27;;
8938;SDS011;4504;48.810;9.172;2022-08-11T09:14:45;103.30;;;2.20;;
8938;SDS011;4504;48.810;9.172;2022-08-11T09:17:30;102.40;;;2.30;;
8938;SDS011;4504;48.810;9.172;2022-08-11T09:19:59;100.97;;;2.43;;
8938;SDS011;4504;48.810;9.172;2022-08-11T09:22:31;101.30;;;2.30;;
8938;SDS011;4504;48.810;9.172;2022-08-11T09:25:18;100.30;;;2.00;;
8938;SDS011;4504;48.810;9.172;2022-08-11T09:28:12;103.70;;;2.20;;
8938;SDS011;4504;48.810;9.172;2022-08-11T09:30:41;99.67;;;1.70;;
8938;SDS011;4504;48.810;9.172;2022-08-11T09:33:10;99.40;;;1.97;;
8938;SDS011;4504;48.810;9.172;2022-08-11T09:35:41;100.33;;;2.03;;
8938;SDS011;4504;48.810;9.172;2022-08-11T09:38:12;102.23;;;2.20;;
8938;SDS011;4504;48.810;9.172;2022-08-11T09:40:57;100.77;;;2.03;;
8938;SDS011;4504;48.810;9.172;2022-08-11T09:43:27;101.17;;;1.90;;
8938;SDS011;4504;48.810;9.172;2022-08-11T09:46:12;101.07;;;2.50;;
8938;SDS011;4504;48.810;9.172;2022-08-11T09:48:41;100.87;;;2.27;;
8938;SDS011;4504;48.810;9.172;2022-08-11T09:51:10;100.60;;;2.00;;
8938;SDS011;4504;48.810;9.172;2022-08-11T09:53:39;100.27;;;2.10;;
8938;SDS011;4504;48.810;9.172;2022-08-11T09:56:09;100.87;;;2.30;;
8938;SDS011;4504;48.810;9.172;2022-08-11T09:58:57;100.00;;;2.00;;
8938;SDS011;4504;48.810;9.172;2022-08-11T10:01:27;99.70;;;1.90;;
8938;SDS011;4504;48.810;9.172;2022-08-11T10:03:57;100.17;;;2.20;;
8938;SDS011;4504;48.810;9.172;2022-08-11T10:06:27;99.63;;;1.60;;
8938;SDS011;4504;48.810;9.172;2022-08-11T10:09:14;103.50;;;2.20;;
8938;SDS011;4504;48.810;9.172;2022-08-11T10:11:45;101.83;;;2.40;;
8938;SDS011;4504;48.810;9.172;2022-08-11T10:14:13;100.27;;;1.90;;
8938;SDS011;4504;48.810;9.172;2022-08-11T10:17:01;100.37;;;2.17;;
8938;SDS011;4504;48.810;9.172;2022-08-11T10:19:32;99.87;;;1.90;;
8938;SDS011;4504;48.810;9.172;2022-08-11T10:22:01;99.83;;;2.10;;
8938;SDS011;4504;48.810;9.172;2022-08-11T10:24:49;99.17;;;1.70;;
8938;SDS011;4504;48.810;9.172;2022-08-11T10:27:35;98.67;;;1.60;;
8938;SDS011;4504;48.810;9.172;2022-08-11T10:30:05;98.77;;;1.87;;
8938;SDS011;4504;48.810;9.172;2022-08-11T10:32:50;98.20;;;1.70;;
8938;SDS011;4504;48.810;9.172;2022-08-11T10:35:35;97.23;;;1.87;;
8938;SDS011;4504;48.810;9.172;2022-08-11T10:38:02;98.97;;;1.90;;
8938;SDS011;4504;48.810;9.172;2022-08-11T10:40:31;98.20;;;1.60;;
8938;SDS011;4504;48.810;9.172;2022-08-11T10:43:00;99.10;;;1.60;;
8938;SDS011;4504;48.810;9.172;2022-08-11T10:45:28;98.70;;;1.80;;
8938;SDS011;4504;48.810;9.172;2022-08-11T10:48:13;101.97;;;1.83;;
8938;SDS011;4504;48.810;9.172;2022-08-11T10:50:43;98.57;;;1.70;;
8938;SDS011;4504;48.810;9.172;2022-08-11T10:53:29;98.67;;;1.77;;
8938;SDS011;4504;48.810;9.172;2022-08-11T10:56:17;98.70;;;1.90;;
8938;SDS011;4504;48.810;9.172;2022-08-11T10:59:03;98.93;;;1.77;;
8938;SDS011;4504;48.810;9.172;2022-08-11T11:01:33;98.17;;;1.57;;
8938;SDS011;4504;48.810;9.172;2022-08-11T11:04:03;97.17;;;1.50;;
8938;SDS011;4504;48.810;9.172;2022-08-11T11:06:35;98.87;;;2.10;;
8938;SDS011;4504;48.810;9.172;2022-08-11T11:09:13;98.80;;;1.83;;
8938;SDS011;4504;48.810;9.172;2022-08-11T11:11:46;96.57;;;1.50;;
8938;SDS011;4504;48.810;9.172;2022-08-11T11:14:33;98.97;;;1.83;;
8938;SDS011;4504;48.810;9.172;2022-08-11T11:17:22;103.00;;;1.60;;
8938;SDS011;4504;48.810;9.172;2022-08-11T11:20:12;98.97;;;1.97;;
8938;SDS011;4504;48.810;9.172;2022-08-11T11:22:42;98.97;;;2.00;;
8938;SDS011;4504;48.810;9.172;2022-08-11T11:25:20;98.57;;;1.97;;
8938;SDS011;4504;48.810;9.172;2022-08-11T11:28:03;98.07;;;1.70;;
8938;SDS011;4504;48.810;9.172;2022-08-11T11:30:54;97.30;;;1.43;;
8938;SDS011;4504;48.810;9.172;2022-08-11T11:33:34;98.07;;;1.80;;
8938;SDS011;4504;48.810;9.172;2022-08-11T11:36:14;98.90;;;1.90;;
8938;SDS011;4504;48.810;9.172;2022-08-11T11:38:49;98.80;;;1.67;;
8938;SDS011;4504;48.810;9.172;2022-08-11T11:41:20;99.30;;;1.80;;
8938;SDS011;4504;48.810;9.172;2022-08-11T11:43:52;97.03;;;1.77;;
8938;SDS011;4504;48.810;9.172;2022-08-11T11:46:20;98.10;;;1.53;;
8938;SDS011;4504;48.810;9.172;2022-08-11T11:48:50;98.77;;;1.80;;
8938;SDS011;4504;48.810;9.172;2022-08-11T11:51:18;98.87;;;1.80;;
8938;SDS011;4504;48.810;9.172;2022-08-11T11:53:47;99.13;;;2.13;;
8938;SDS011;4504;48.810;9.172;2022-08-11T11:56:15;99.07;;;1.80;;
8938;SDS011;4504;48.810;9.172;2022-08-11T11:58:43;97.77;;;1.90;;
8938;SDS011;4504;48.810;9.172;2022-08-11T12:01:29;97.77;;;1.80;;
8938;SDS011;4504;48.810;9.172;2022-08-11T12:03:58;98.27;;;1.90;;
8938;SDS011;4504;48.810;9.172;2022-08-11T12:06:30;99.50;;;2.03;;
8938;SDS011;4504;48.810;9.172;2022-08-11T12:08:58;98.37;;;1.70;;
8938;SDS011;4504;48.810;9.172;2022-08-11T12:11:26;98.17;;;2.03;;
8938;SDS011;4504;48.810;9.172;2022-08-11T12:14:12;101.00;;;1.80;;
8938;SDS011;4504;48.810;9.172;2022-08-11T12:16:44;99.80;;;1.83;;
8938;SDS011;4504;48.810;9.172;2022-08-11T12:19:13;98.10;;;1.70;;
8938;SDS011;4504;48.810;9.172;2022-08-11T12:21:42;97.77;;;1.80;;
8938;SDS011;4504;48.810;9.172;2022-08-11T12:24:23;97.73;;;2.23;;
8938;SDS011;4504;48.810;9.172;2022-08-11T12:27:08;98.27;;;1.80;;
8938;SDS011;4504;48.810;9.172;2022-08-11T12:29:46;97.53;;;1.80;;
8938;SDS011;4504;48.810;9.172;2022-08-11T12:32:16;97.60;;;1.93;;
8938;SDS011;4504;48.810;9.172;2022-08-11T12:34:45;97.33;;;1.60;;
8938;SDS011;4504;48.810;9.172;2022-08-11T12:37:12;97.57;;;1.83;;
8938;SDS011;4504;48.810;9.172;2022-08-11T12:39:43;98.20;;;2.03;;
8938;SDS011;4504;48.810;9.172;2022-08-11T12:42:30;98.50;;;1.70;;
8938;SDS011;4504;48.810;9.172;2022-08-11T12:45:16;96.50;;;1.70;;
8938;SDS011;4504;48.810;9.172;2022-08-11T12:48:06;96.40;;;1.60;;
8938;SDS011;4504;48.810;9.172;2022-08-11T12:51:02;96.90;;;1.50;;
8938;SDS011;4504;48.810;9.172;2022-08-11T12:53:51;100.70;;;1.83;;
8938;SDS011;4504;48.810;9.172;2022-08-11T12:56:22;96.83;;;2.10;;
8938;SDS011;4504;48.810;9.172;2022-08-11T12:59:08;96.33;;;1.80;;
8938;SDS011;4504;48.810;9.172;2022-08-11T13:01:53;95.47;;;1.47;;
8938;SDS011;4504;48.810;9.172;2022-08-11T13:04:39;96.20;;;1.70;;
8938;SDS011;4504;48.810;9.172;2022-08-11T13:07:24;94.80;;;1.50;;
8938;SDS011;4504;48.810;9.172;2022-08-11T13:09:52;95.57;;;1.40;;
8938;SDS011;4504;48.810;9.172;2022-08-11T13:12:21;99.13;;;1.80;;
8938;SDS011;4504;48.810;9.172;2022-08-11T13:15:07;96.07;;;1.60;;
8938;SDS011;4504;48.810;9.172;2022-08-11T13:17:36;96.00;;;1.60;;
8938;SDS011;4504;48.810;9.172;2022-08-11T13:20:08;96.90;;;1.70;;
8938;SDS011;4504;48.810;9.172;2022-08-11T13:22:37;95.40;;;1.50;;
8938;SDS011;4504;48.810;9.172;2022-08-11T13:25:10;97.10;;;1.93;;
8938;SDS011;4504;48.810;9.172;2022-08-11T13:27:40;102.37;;;3.17;;
8938;SDS011;4504;48.810;9.172;2022-08-11T13:30:08;95.27;;;2.00;;
8938;SDS011;4504;48.810;9.172;2022-08-11T13:32:53;96.47;;;2.23;;
8938;SDS011;4504;48.810;9.172;2022-08-11T13:35:22;95.87;;;1.80;;
8938;SDS011;4504;48.810;9.172;2022-08-11T13:37:49;96.17;;;1.83;;
8938;SDS011;4504;48.810;9.172;2022-08-11T13:40:17;97.60;;;1.70;;
8938;SDS011;4504;48.810;9.172;2022-08-11T13:42:46;96.67;;;2.10;;
8938;SDS011;4504;48.810;9.172;2022-08-11T13:45:15;98.07;;;2.63;;
8938;SDS011;4504;48.810;9.172;2022-08-11T13:47:42;97.27;;;1.93;;
8938;SDS011;4504;48.810;9.172;2022-08-11T13:50:10;96.17;;;1.80;;
8938;SDS011;4504;48.810;9.172;2022-08-11T13:52:42;96.60;;;2.00;;
8938;SDS011;4504;48.810;9.172;2022-08-11T13:55:13;95.47;;;1.70;;
8938;SDS011;4504;48.810;9.172;2022-08-11T13:57:47;96.00;;;1.97;;
8938;SDS011;4504;48.810;9.172;2022-08-11T14:00:17;95.87;;;1.60;;
8938;SDS011;4504;48.810;9.172;2022-08-11T14:02:47;95.57;;;1.67;;
8938;SDS011;4504;48.810;9.172;2022-08-11T14:05:16;95.37;;;1.60;;
8938;SDS011;4504;48.810;9.172;2022-08-11T14:07:49;95.67;;;1.80;;
8938;SDS011;4504;48.810;9.172;2022-08-11T14:10:19;95.50;;;1.77;;
8938;SDS011;4504;48.810;9.172;2022-08-11T14:12:50;96.17;;;1.60;;
8938;SDS011;4504;48.810;9.172;2022-08-11T14:15:40;95.47;;;1.60;;
8938;SDS011;4504;48.810;9.172;2022-08-11T14:18:12;94.07;;;1.40;;
8938;SDS011;4504;48.810;9.172;2022-08-11T14:20:44;94.47;;;1.47;;
8938;SDS011;4504;48.810;9.172;2022-08-11T14:23:34;95.50;;;1.50;;
8938;SDS011;4504;48.810;9.172;2022-08-11T14:26:05;94.83;;;1.53;;
8938;SDS011;4504;48.810;9.172;2022-08-11T14:28:56;109.10;;;1.73;;
8938;SDS011;4504;48.810;9.172;2022-08-11T14:31:27;94.10;;;1.40;;
8938;SDS011;4504;48.810;9.172;2022-08-11T14:33:56;93.63;;;1.63;;
8938;SDS011;4504;48.810;9.172;2022-08-11T14:36:29;95.27;;;1.70;;
8938;SDS011;4504;48.810;9.172;2022-08-11T14:38:59;94.83;;;1.70;;
8938;SDS011;4504;48.810;9.172;2022-08-11T14:41:29;94.43;;;1.53;;
8938;SDS011;4504;48.810;9.172;2022-08-11T14:44:14;94.67;;;1.80;;
8938;SDS011;4504;48.810;9.172;2022-08-11T14:46:58;94.63;;;1.50;;
8938;SDS011;4504;48.810;9.172;2022-08-11T14:49:33;93.90;;;1.30;;
8938;SDS011;4504;48.810;9.172;2022-08-11T14:52:02;94.60;;;1.83;;
8938;SDS011;4504;48.810;9.172;2022-08-11T14:54:33;94.93;;;1.70;;
8938;SDS011;4504;48.810;9.172;2022-08-11T14:57:19;93.87;;;1.80;;
8938;SDS011;4504;48.810;9.172;2022-08-11T14:59:47;93.70;;;1.47;;
8938;SDS011;4504;48.810;9.172;2022-08-11T15:02:17;94.17;;;1.70;;
8938;SDS011;4504;48.810;9.172;2022-08-11T15:05:03;93.03;;;1.30;;
8938;SDS011;4504;48.810;9.172;2022-08-11T15:07:31;94.07;;;1.90;;
8938;SDS011;4504;48.810;9.172;2022-08-11T15:10:02;92.87;;;1.40;;
8938;SDS011;4504;48.810;9.172;2022-08-11T15:12:32;94.77;;;1.60;;
8938;SDS011;4504;48.810;9.172;2022-08-11T15:15:00;94.20;;;1.37;;
8938;SDS011;4504;48.810;9.172;2022-08-11T15:17:46;93.80;;;1.50;;
8938;SDS011;4504;48.810;9.172;2022-08-11T15:20:15;94.07;;;1.53;;
8938;SDS011;4504;48.810;9.172;2022-08-11T15:23:03;94.50;;;1.63;;
8938;SDS011;4504;48.810;9.172;2022-08-11T15:25:49;94.50;;;1.40;;
8938;SDS011;4504;48.810;9.172;2022-08-11T15:28:20;93.37;;;1.57;;
8938;SDS011;4504;48.810;9.172;2022-08-11T15:31:07;94.50;;;2.07;;
8938;SDS011;4504;48.810;9.172;2022-08-11T15:33:53;92.37;;;1.73;;
8938;SDS011;4504;48.810;9.172;2022-08-11T15:36:43;96.30;;;1.83;;
8938;SDS011;4504;48.810;9.172;2022-08-11T15:39:31;93.50;;;1.50;;
8938;SDS011;4504;48.810;9.172;2022-08-11T15:42:03;93.20;;;1.30;;
8938;SDS011;4504;48.810;9.172;2022-08-11T15:45:02;92.67;;;1.70;;
8938;SDS011;4504;48.810;9.172;2022-08-11T15:47:50;93.90;;;1.50;;
8938;SDS011;4504;48.810;9.172;2022-08-11T15:50:22;92.50;;;1.60;;
8938;SDS011;4504;48.810;9.172;2022-08-11T15:52:55;98.90;;;1.67;;
8938;SDS011;4504;48.810;9.172;2022-08-11T15:55:24;92.67;;;1.20;;
8938;SDS011;4504;48.810;9.172;2022-08-11T15:57:55;92.70;;;1.27;;
8938;SDS011;4504;48.810;9.172;2022-08-11T16:00:52;94.07;;;1.40;;
8938;SDS011;4504;48.810;9.172;2022-08-11T16:03:39;93.47;;;1.37;;
8938;SDS011;4504;48.810;9.172;2022-08-11T16:06:28;93.10;;;1.33;;
8938;SDS011;4504;48.810;9.172;2022-08-11T16:08:56;92.20;;;1.37;;
8938;SDS011;4504;48.810;9.172;2022-08-11T16:11:29;92.67;;;1.30;;
8938;SDS011;4504;48.810;9.172;2022-08-11T16:14:00;93.47;;;1.70;;
8938;SDS011;4504;48.810;9.172;2022-08-11T16:16:47;93.60;;;1.70;;
8938;SDS011;4504;48.810;9.172;2022-08-11T16:19:17;93.30;;;1.53;;
8938;SDS011;4504;48.810;9.172;2022-08-11T16:21:46;92.80;;;1.33;;
8938;SDS011;4504;48.810;9.172;2022-08-11T16:24:18;94.30;;;2.07;;
8938;SDS011;4504;48.810;9.172;2022-08-11T16:26:47;92.83;;;1.70;;
8938;SDS011;4504;48.810;9.172;2022-08-11T16:29:21;92.57;;;1.47;;
8938;SDS011;4504;48.810;9.172;2022-08-11T16:31:50;93.87;;;1.33;;
8938;SDS011;4504;48.810;9.172;2022-08-11T16:34:32;94.27;;;1.70;;
8938;SDS011;4504;48.810;9.172;2022-08-11T16:37:18;92.87;;;1.60;;
8938;SDS011;4504;48.810;9.172;2022-08-11T16:40:06;93.17;;;1.30;;
8938;SDS011;4504;48.810;9.172;2022-08-11T16:42:35;92.67;;;1.30;;
8938;SDS011;4504;48.810;9.172;2022-08-11T16:45:23;93.30;;;1.30;;
8938;SDS011;4504;48.810;9.172;2022-08-11T16:48:08;93.30;;;1.30;;
8938;SDS011;4504;48.810;9.172;2022-08-11T16:50:36;93.77;;;1.50;;
8938;SDS011;4504;48.810;9.172;2022-08-11T16:53:04;93.50;;;2.10;;
8938;SDS011;4504;48.810;9.172;2022-08-11T16:55:32;93.67;;;1.67;;
8938;SDS011;4504;48.810;9.172;2022-08-11T16:58:00;96.10;;;1.63;;